createdAt,value
2018-07-27T00:00:18.978Z,1003.28
2018-07-27T00:01:18.976Z,1003.26
2018-07-27T00:02:19.004Z,1003.26
2018-07-27T00:03:18.988Z,1003.25
2018-07-27T00:04:19.047Z,1003.22
2018-07-27T00:05:18.973Z,1003.25
2018-07-27T00:06:18.971Z,1003.24
2018-07-27T00:07:18.970Z,1003.26
2018-07-27T00:08:18.944Z,1003.24
2018-07-27T00:09:18.952Z,1003.26
2018-07-27T00:10:18.986Z,1003.26
2018-07-27T00:11:18.950Z,1003.25
2018-07-27T00:12:18.979Z,1003.24
2018-07-27T00:13:18.941Z,1003.22
2018-07-27T00:14:18.929Z,1003.27
2018-07-27T00:15:18.982Z,1003.23
2018-07-27T00:16:18.931Z,1003.24
2018-07-27T00:17:18.944Z,1003.26
2018-07-27T00:18:18.924Z,1003.26
2018-07-27T00:19:18.936Z,1003.26
2018-07-27T00:20:19.466Z,1003.24
2018-07-27T00:21:18.972Z,1003.26
2018-07-27T00:22:18.936Z,1003.28
2018-07-27T00:23:18.933Z,1003.30
2018-07-27T00:24:18.925Z,1003.28
2018-07-27T00:25:18.900Z,1003.27
2018-07-27T00:26:19.439Z,1003.27
2018-07-27T00:27:18.954Z,1003.29
2018-07-27T00:28:18.926Z,1003.26
2018-07-27T00:29:20.020Z,1003.29
2018-07-27T00:30:19.413Z,1003.29
2018-07-27T00:31:18.882Z,1003.26
2018-07-27T00:32:19.064Z,1003.32
2018-07-27T00:33:19.545Z,1003.28
2018-07-27T00:34:18.878Z,1003.32
2018-07-27T00:35:18.897Z,1003.30
2018-07-27T00:36:18.894Z,1003.32
2018-07-27T00:37:19.544Z,1003.29
2018-07-27T00:38:18.899Z,1003.28
2018-07-27T00:39:18.886Z,1003.27
2018-07-27T00:40:18.888Z,1003.28
2018-07-27T00:41:18.872Z,1003.26
2018-07-27T00:42:18.881Z,1003.23
2018-07-27T00:43:18.959Z,1003.21
2018-07-27T00:44:18.868Z,1003.22
2018-07-27T00:45:18.835Z,1003.22
2018-07-27T00:46:18.877Z,1003.24
2018-07-27T00:47:18.880Z,1003.20
2018-07-27T00:48:18.839Z,1003.22
2018-07-27T00:49:18.836Z,1003.23
2018-07-27T00:50:18.872Z,1003.19
2018-07-27T00:51:18.829Z,1003.22
2018-07-27T00:52:18.817Z,1003.19
2018-07-27T00:53:18.811Z,1003.18
2018-07-27T00:54:18.821Z,1003.16
2018-07-27T00:55:18.846Z,1003.15
2018-07-27T00:56:18.817Z,1003.11
2018-07-27T00:57:18.796Z,1003.12
2018-07-27T00:58:18.817Z,1003.10
2018-07-27T00:59:18.830Z,1003.12
2018-07-27T01:00:18.786Z,1003.11
2018-07-27T01:01:18.782Z,1003.07
2018-07-27T01:02:18.830Z,1003.12
2018-07-27T01:03:18.790Z,1003.07
2018-07-27T01:04:18.786Z,1003.06
2018-07-27T01:05:18.820Z,1003.07
2018-07-27T01:06:18.786Z,1003.03
2018-07-27T01:07:18.786Z,1003.04
2018-07-27T01:08:18.763Z,1003.06
2018-07-27T01:09:18.758Z,1003.03
2018-07-27T01:10:18.818Z,1003.03
2018-07-27T01:11:18.742Z,1002.99
2018-07-27T01:12:18.779Z,1002.99
2018-07-27T01:13:18.774Z,1003.00
2018-07-27T01:14:18.756Z,1003.00
2018-07-27T01:15:18.738Z,1003.00
2018-07-27T01:16:18.781Z,1002.99
2018-07-27T01:17:18.769Z,1002.96
2018-07-27T01:18:18.724Z,1002.97
2018-07-27T01:19:18.723Z,1002.97
2018-07-27T01:20:18.787Z,1002.98
2018-07-27T01:21:18.725Z,1002.94
2018-07-27T01:22:18.717Z,1002.95
2018-07-27T01:23:18.709Z,1002.93
2018-07-27T01:24:18.714Z,1002.90
2018-07-27T01:25:18.725Z,1002.95
2018-07-27T01:26:18.724Z,1002.92
2018-07-27T01:27:18.692Z,1002.91
2018-07-27T01:28:18.760Z,1002.90
2018-07-27T01:29:18.699Z,1002.83
2018-07-27T01:30:18.690Z,1002.88
2018-07-27T01:31:18.699Z,1002.88
2018-07-27T01:32:18.682Z,1002.86
2018-07-27T01:33:18.682Z,1002.84
2018-07-27T01:34:18.695Z,1002.84
2018-07-27T01:35:18.678Z,1002.88
2018-07-27T01:36:18.666Z,1002.87
2018-07-27T01:37:18.707Z,1002.84
2018-07-27T01:38:18.661Z,1002.88
2018-07-27T01:39:18.662Z,1002.87
2018-07-27T01:40:18.657Z,1002.85
2018-07-27T01:41:18.639Z,1002.86
2018-07-27T01:42:18.642Z,1002.84
2018-07-27T01:43:18.660Z,1002.84
2018-07-27T01:44:18.664Z,1002.87
2018-07-27T01:45:18.631Z,1002.83
2018-07-27T01:46:18.628Z,1002.82
2018-07-27T01:47:18.624Z,1002.80
2018-07-27T01:48:18.635Z,1002.80
2018-07-27T01:49:18.653Z,1002.81
2018-07-27T01:50:18.650Z,1002.82
2018-07-27T01:51:18.608Z,1002.81
2018-07-27T01:52:18.607Z,1002.76
2018-07-27T01:53:18.608Z,1002.77
2018-07-27T01:54:18.666Z,1002.73
2018-07-27T01:55:18.592Z,1002.77
2018-07-27T01:56:18.606Z,1002.79
2018-07-27T01:57:18.583Z,1002.76
2018-07-27T01:58:18.596Z,1002.75
2018-07-27T01:59:18.596Z,1002.77
2018-07-27T02:00:18.615Z,1002.78
2018-07-27T02:01:18.574Z,1002.75
2018-07-27T02:02:18.574Z,1002.72
2018-07-27T02:03:18.565Z,1002.71
2018-07-27T02:04:18.668Z,1002.70
2018-07-27T02:05:18.583Z,1002.69
2018-07-27T02:06:18.558Z,1002.72
2018-07-27T02:07:18.584Z,1002.72
2018-07-27T02:08:18.557Z,1002.71
2018-07-27T02:09:18.532Z,1002.72
2018-07-27T02:10:18.601Z,1002.70
2018-07-27T02:11:18.545Z,1002.71
2018-07-27T02:12:18.542Z,1002.70
2018-07-27T02:13:18.524Z,1002.67
2018-07-27T02:14:18.557Z,1002.64
2018-07-27T02:15:18.524Z,1002.65
2018-07-27T02:16:18.558Z,1002.66
2018-07-27T02:17:18.511Z,1002.66
2018-07-27T02:18:18.518Z,1002.64
2018-07-27T02:19:18.504Z,1002.63
2018-07-27T02:20:18.497Z,1002.66
2018-07-27T02:21:18.530Z,1002.63
2018-07-27T02:22:18.531Z,1002.60
2018-07-27T02:23:18.477Z,1002.64
2018-07-27T02:24:18.482Z,1002.63
2018-07-27T02:25:18.478Z,1002.59
2018-07-27T02:26:18.470Z,1002.59
2018-07-27T02:27:18.529Z,1002.57
2018-07-27T02:28:18.473Z,1002.59
2018-07-27T02:29:18.463Z,1002.56
2018-07-27T02:30:18.474Z,1002.54
2018-07-27T02:31:18.448Z,1002.52
2018-07-27T02:32:18.511Z,1002.55
2018-07-27T02:33:18.455Z,1002.54
2018-07-27T02:34:18.439Z,1002.56
2018-07-27T02:35:18.437Z,1002.49
2018-07-27T02:36:18.438Z,1002.51
2018-07-27T02:37:18.429Z,1002.50
2018-07-27T02:38:18.439Z,1002.52
2018-07-27T02:39:18.429Z,1002.51
2018-07-27T02:40:18.416Z,1002.53
2018-07-27T02:41:18.408Z,1002.48
2018-07-27T02:42:18.412Z,1002.52
2018-07-27T02:43:18.450Z,1002.53
2018-07-27T02:44:18.477Z,1002.52
2018-07-27T02:45:18.422Z,1002.49
2018-07-27T02:46:18.430Z,1002.52
2018-07-27T02:47:18.398Z,1002.49
2018-07-27T02:48:18.422Z,1002.46
2018-07-27T02:49:18.449Z,1002.50
2018-07-27T02:50:18.387Z,1002.49
2018-07-27T02:51:18.432Z,1002.44
2018-07-27T02:52:18.371Z,1002.48
2018-07-27T02:53:18.364Z,1002.43
2018-07-27T02:54:18.358Z,1002.46
2018-07-27T02:55:18.361Z,1002.44
2018-07-27T02:56:18.348Z,1002.41
2018-07-27T02:57:18.356Z,1002.41
2018-07-27T02:58:18.352Z,1002.44
2018-07-27T02:59:18.347Z,1002.41
2018-07-27T03:00:18.348Z,1002.40
2018-07-27T03:01:18.369Z,1002.40
2018-07-27T03:02:18.324Z,1002.41
2018-07-27T03:03:18.335Z,1002.40
2018-07-27T03:04:18.323Z,1002.42
2018-07-27T03:05:18.341Z,1002.42
2018-07-27T03:06:18.352Z,1002.45
2018-07-27T03:07:18.323Z,1002.40
2018-07-27T03:08:18.343Z,1002.42
2018-07-27T03:09:18.313Z,1002.42
2018-07-27T03:10:18.337Z,1002.40
2018-07-27T03:11:18.295Z,1002.42
2018-07-27T03:12:18.346Z,1002.41
2018-07-27T03:13:18.282Z,1002.41
2018-07-27T03:14:18.285Z,1002.40
2018-07-27T03:15:18.309Z,1002.40
2018-07-27T03:16:18.281Z,1002.44
2018-07-27T03:17:18.272Z,1002.42
2018-07-27T03:18:18.282Z,1002.45
2018-07-27T03:19:18.262Z,1002.45
2018-07-27T03:20:18.254Z,1002.48
2018-07-27T03:21:18.254Z,1002.49
2018-07-27T03:22:18.311Z,1002.52
2018-07-27T03:23:18.255Z,1002.53
2018-07-27T03:24:18.241Z,1002.50
2018-07-27T03:25:18.238Z,1002.52
2018-07-27T03:26:18.227Z,1002.51
2018-07-27T03:27:18.260Z,1002.49
2018-07-27T03:28:18.223Z,1002.47
2018-07-27T03:29:18.223Z,1002.48
2018-07-27T03:30:18.216Z,1002.47
2018-07-27T03:31:18.235Z,1002.48
2018-07-27T03:32:18.323Z,1002.41
2018-07-27T03:33:18.192Z,1002.43
2018-07-27T03:34:18.192Z,1002.49
2018-07-27T03:35:18.190Z,1002.51
2018-07-27T03:36:18.192Z,1002.52
2018-07-27T03:37:18.228Z,1002.53
2018-07-27T03:38:18.269Z,1002.56
2018-07-27T03:39:18.185Z,1002.55
2018-07-27T03:40:18.166Z,1002.52
2018-07-27T03:41:18.170Z,1002.57
2018-07-27T03:42:18.212Z,1002.55
2018-07-27T03:43:18.161Z,1002.55
2018-07-27T03:44:18.140Z,1002.55
2018-07-27T03:45:18.146Z,1002.48
2018-07-27T03:46:18.149Z,1002.46
2018-07-27T03:47:18.135Z,1002.51
2018-07-27T03:48:18.147Z,1002.51
2018-07-27T03:49:18.154Z,1002.48
2018-07-27T03:50:18.122Z,1002.52
2018-07-27T03:51:18.122Z,1002.51
2018-07-27T03:52:18.119Z,1002.50
2018-07-27T03:53:18.141Z,1002.52
2018-07-27T03:54:18.107Z,1002.48
2018-07-27T03:55:18.106Z,1002.55
2018-07-27T03:56:18.116Z,1002.57
2018-07-27T03:57:18.101Z,1002.55
2018-07-27T03:58:18.097Z,1002.54
2018-07-27T03:59:18.088Z,1002.60
2018-07-27T04:00:18.076Z,1002.60
2018-07-27T04:01:18.077Z,1002.59
2018-07-27T04:02:18.178Z,1002.57
2018-07-27T04:03:18.069Z,1002.55
2018-07-27T04:04:18.066Z,1002.57
2018-07-27T04:05:18.057Z,1002.58
2018-07-27T04:06:18.100Z,1002.55
2018-07-27T04:07:18.091Z,1002.61
2018-07-27T04:08:18.120Z,1002.62
2018-07-27T04:09:18.046Z,1002.60
2018-07-27T04:10:18.065Z,1002.59
2018-07-27T04:11:18.040Z,1002.55
2018-07-27T04:12:18.037Z,1002.58
2018-07-27T04:13:18.010Z,1002.59
2018-07-27T04:14:18.055Z,1002.59
2018-07-27T04:15:18.026Z,1002.59
2018-07-27T04:16:18.012Z,1002.57
2018-07-27T04:17:18.012Z,1002.60
2018-07-27T04:18:18.040Z,1002.63
2018-07-27T04:19:17.989Z,1002.61
2018-07-27T04:20:18.007Z,1002.61
2018-07-27T04:21:18.002Z,1002.68
2018-07-27T04:22:18.019Z,1002.63
2018-07-27T04:23:18.060Z,1002.65
2018-07-27T04:24:18.009Z,1002.64
2018-07-27T04:25:17.978Z,1002.68
2018-07-27T04:26:18.047Z,1002.66
2018-07-27T04:27:17.969Z,1002.66
2018-07-27T04:28:17.961Z,1002.67
2018-07-27T04:29:17.995Z,1002.66
2018-07-27T04:30:17.944Z,1002.66
2018-07-27T04:31:17.952Z,1002.67
2018-07-27T04:32:17.937Z,1002.65
2018-07-27T04:33:17.933Z,1002.64
2018-07-27T04:34:17.956Z,1002.66
2018-07-27T04:35:17.923Z,1002.62
2018-07-27T04:36:17.920Z,1002.61
2018-07-27T04:37:17.915Z,1002.63
2018-07-27T04:38:17.925Z,1002.62
2018-07-27T04:39:17.940Z,1002.60
2018-07-27T04:40:17.906Z,1002.58
2018-07-27T04:41:17.899Z,1002.60
2018-07-27T04:42:17.943Z,1002.63
2018-07-27T04:43:17.888Z,1002.62
2018-07-27T04:44:17.952Z,1002.61
2018-07-27T04:45:17.884Z,1002.58
2018-07-27T04:46:17.876Z,1002.60
2018-07-27T04:47:17.865Z,1002.60
2018-07-27T04:48:17.872Z,1002.61
2018-07-27T04:49:18.877Z,1002.58
2018-07-27T04:50:17.878Z,1002.59
2018-07-27T04:51:17.853Z,1002.56
2018-07-27T04:52:17.862Z,1002.56
2018-07-27T04:53:17.853Z,1002.55
2018-07-27T04:54:17.876Z,1002.54
2018-07-27T04:55:17.827Z,1002.54
2018-07-27T04:56:17.888Z,1002.52
2018-07-27T04:57:17.858Z,1002.53
2018-07-27T04:58:17.825Z,1002.49
2018-07-27T04:59:17.847Z,1002.48
2018-07-27T05:00:17.824Z,1002.53
2018-07-27T05:01:17.806Z,1002.52
2018-07-27T05:02:17.817Z,1002.52
2018-07-27T05:03:17.801Z,1002.52
2018-07-27T05:04:17.886Z,1002.52
2018-07-27T05:05:17.799Z,1002.55
2018-07-27T05:06:17.794Z,1002.54
2018-07-27T05:07:17.780Z,1002.56
2018-07-27T05:08:17.781Z,1002.52
2018-07-27T05:09:17.770Z,1002.54
2018-07-27T05:10:17.821Z,1002.54
2018-07-27T05:11:17.776Z,1002.55
2018-07-27T05:12:17.762Z,1002.54
2018-07-27T05:13:17.751Z,1002.55
2018-07-27T05:14:17.747Z,1002.52
2018-07-27T05:15:17.744Z,1002.54
2018-07-27T05:16:17.803Z,1002.55
2018-07-27T05:17:17.741Z,1002.52
2018-07-27T05:18:17.811Z,1002.51
2018-07-27T05:19:17.734Z,1002.51
2018-07-27T05:20:17.731Z,1002.53
2018-07-27T05:21:17.742Z,1002.50
2018-07-27T05:22:17.727Z,1002.51
2018-07-27T05:23:17.732Z,1002.57
2018-07-27T05:24:17.712Z,1002.56
2018-07-27T05:25:17.771Z,1002.54
2018-07-27T05:26:17.698Z,1002.56
2018-07-27T05:27:17.706Z,1002.56
2018-07-27T05:28:17.681Z,1002.57
2018-07-27T05:29:17.678Z,1002.55
2018-07-27T05:30:17.679Z,1002.55
2018-07-27T05:31:17.712Z,1002.57
2018-07-27T05:32:22.592Z,1002.57
2018-07-27T05:33:17.687Z,1002.57
2018-07-27T05:34:17.747Z,1002.57
2018-07-27T05:35:17.661Z,1002.58
2018-07-27T05:36:17.657Z,1002.59
2018-07-27T05:37:17.660Z,1002.61
2018-07-27T05:38:17.650Z,1002.60
2018-07-27T05:39:17.649Z,1002.55
2018-07-27T05:40:17.638Z,1002.57
2018-07-27T05:41:17.649Z,1002.57
2018-07-27T05:42:17.662Z,1002.60
2018-07-27T05:43:17.628Z,1002.58
2018-07-27T05:44:17.631Z,1002.55
2018-07-27T05:45:17.610Z,1002.57
2018-07-27T05:46:17.617Z,1002.57
2018-07-27T05:47:17.648Z,1002.59
2018-07-27T05:48:17.599Z,1002.60
2018-07-27T05:49:17.596Z,1002.59
2018-07-27T05:50:17.602Z,1002.60
2018-07-27T05:51:17.597Z,1002.57
2018-07-27T05:52:17.649Z,1002.62
2018-07-27T05:53:17.594Z,1002.65
2018-07-27T05:54:17.592Z,1002.65
2018-07-27T05:55:17.572Z,1002.64
2018-07-27T05:56:17.578Z,1002.66
2018-07-27T05:57:17.584Z,1002.65
2018-07-27T05:58:17.638Z,1002.69
2018-07-27T05:59:17.575Z,1002.70
2018-07-27T06:00:17.561Z,1002.74
2018-07-27T06:01:17.599Z,1002.74
2018-07-27T06:02:17.554Z,1002.72
2018-07-27T06:03:17.532Z,1002.72
2018-07-27T06:04:17.553Z,1002.72
2018-07-27T06:05:17.533Z,1002.74
2018-07-27T06:06:17.555Z,1002.77
2018-07-27T06:07:17.524Z,1002.77
2018-07-27T06:08:17.529Z,1002.76
2018-07-27T06:09:19.528Z,1002.78
2018-07-27T06:10:18.298Z,1002.75
2018-07-27T06:11:17.575Z,1002.76
2018-07-27T06:12:17.508Z,1002.74
2018-07-27T06:13:17.507Z,1002.78
2018-07-27T06:14:17.555Z,1002.73
2018-07-27T06:15:17.503Z,1002.75
2018-07-27T06:16:17.491Z,1002.75
2018-07-27T06:17:17.476Z,1002.74
2018-07-27T06:18:17.491Z,1002.71
2018-07-27T06:19:17.482Z,1002.74
2018-07-27T06:20:17.532Z,1002.72
2018-07-27T06:21:17.466Z,1002.71
2018-07-27T06:22:17.467Z,1002.70
2018-07-27T06:23:17.511Z,1002.70
2018-07-27T06:24:17.574Z,1002.67
2018-07-27T06:25:17.464Z,1002.71
2018-07-27T06:26:17.483Z,1002.69
2018-07-27T06:27:17.450Z,1002.70
2018-07-27T06:28:17.486Z,1002.69
2018-07-27T06:29:17.503Z,1002.67
2018-07-27T06:30:17.444Z,1002.68
2018-07-27T06:31:18.928Z,1002.68
2018-07-27T06:32:17.425Z,1002.67
2018-07-27T06:33:17.420Z,1002.69
2018-07-27T06:34:17.414Z,1002.67
2018-07-27T06:35:17.433Z,1002.64
2018-07-27T06:36:17.487Z,1002.63
2018-07-27T06:37:17.424Z,1002.59
2018-07-27T06:38:17.411Z,1002.59
2018-07-27T06:39:17.408Z,1002.60
2018-07-27T06:40:17.394Z,1002.61
2018-07-27T06:41:17.400Z,1002.59
2018-07-27T06:42:17.433Z,1002.60
2018-07-27T06:43:19.131Z,1002.62
2018-07-27T06:44:17.391Z,1002.61
2018-07-27T06:45:17.442Z,1002.64
2018-07-27T06:46:17.381Z,1002.62
2018-07-27T06:47:18.165Z,1002.64
2018-07-27T06:48:17.374Z,1002.64
2018-07-27T06:49:17.407Z,1002.60
2018-07-27T06:50:17.369Z,1002.62
2018-07-27T06:51:17.358Z,1002.61
2018-07-27T06:52:17.377Z,1002.61
2018-07-27T06:53:17.354Z,1002.62
2018-07-27T06:54:17.365Z,1002.67
2018-07-27T06:55:17.349Z,1002.66
2018-07-27T06:56:17.358Z,1002.72
2018-07-27T06:57:17.346Z,1002.70
2018-07-27T06:58:17.348Z,1002.69
2018-07-27T06:59:17.357Z,1002.72
2018-07-27T07:00:17.329Z,1002.70
2018-07-27T07:01:17.337Z,1002.70
2018-07-27T07:02:17.319Z,1002.72
2018-07-27T07:03:17.350Z,1002.67
2018-07-27T07:04:17.364Z,1002.67
2018-07-27T07:05:17.336Z,1002.63
2018-07-27T07:06:17.318Z,1002.64
2018-07-27T07:07:17.300Z,1002.66
2018-07-27T07:08:20.665Z,1002.64
2018-07-27T07:09:17.406Z,1002.65
2018-07-27T07:10:17.290Z,1002.69
2018-07-27T07:11:18.140Z,1002.67
2018-07-27T07:12:17.303Z,1002.65
2018-07-27T07:13:17.283Z,1002.67
2018-07-27T07:14:17.289Z,1002.67
2018-07-27T07:15:17.319Z,1002.66
2018-07-27T07:16:17.303Z,1002.69
2018-07-27T07:17:17.281Z,1002.70
2018-07-27T07:18:17.276Z,1002.69
2018-07-27T07:19:17.286Z,1002.72
2018-07-27T07:20:17.306Z,1002.70
2018-07-27T07:21:17.267Z,1002.75
2018-07-27T07:22:17.291Z,1002.71
2018-07-27T07:23:17.267Z,1002.74
2018-07-27T07:24:17.284Z,1002.74
2018-07-27T07:25:17.450Z,1002.77
2018-07-27T07:26:17.245Z,1002.76
2018-07-27T07:27:17.253Z,1002.72
2018-07-27T07:28:17.236Z,1002.72
2018-07-27T07:29:17.236Z,1002.74
2018-07-27T07:30:17.239Z,1002.75
2018-07-27T07:31:17.244Z,1002.69
2018-07-27T07:32:17.232Z,1002.70
2018-07-27T07:33:17.278Z,1002.72
2018-07-27T07:34:17.229Z,1002.66
2018-07-27T07:35:17.242Z,1002.67
2018-07-27T07:36:17.254Z,1002.68
2018-07-27T07:37:17.216Z,1002.67
2018-07-27T07:38:17.209Z,1002.63
2018-07-27T07:39:17.213Z,1002.58
2018-07-27T07:40:17.228Z,1002.58
2018-07-27T07:41:17.237Z,1002.56
2018-07-27T07:42:17.209Z,1002.60
2018-07-27T07:43:17.210Z,1002.54
2018-07-27T07:44:17.190Z,1002.50
2018-07-27T07:45:17.211Z,1002.57
2018-07-27T07:46:17.533Z,1002.53
2018-07-27T07:47:17.197Z,1002.55
2018-07-27T07:48:17.184Z,1002.58
2018-07-27T07:49:17.213Z,1002.56
2018-07-27T07:50:17.182Z,1002.56
2018-07-27T07:51:17.196Z,1002.56
2018-07-27T07:52:17.210Z,1002.56
2018-07-27T07:53:17.178Z,1002.55
2018-07-27T07:54:17.173Z,1002.59
2018-07-27T07:55:17.178Z,1002.57
2018-07-27T07:56:17.182Z,1002.60
2018-07-27T07:57:17.206Z,1002.58
2018-07-27T07:58:17.171Z,1002.54
2018-07-27T07:59:17.165Z,1002.53
2018-07-27T08:00:17.164Z,1002.58
2018-07-27T08:01:17.146Z,1002.56
2018-07-27T08:02:17.166Z,1002.52
2018-07-27T08:03:17.179Z,1002.48
2018-07-27T08:04:17.204Z,1002.54
2018-07-27T08:05:17.134Z,1002.52
2018-07-27T08:06:17.192Z,1002.49
2018-07-27T08:07:17.139Z,1002.47
2018-07-27T08:08:18.114Z,1002.51
2018-07-27T08:09:17.162Z,1002.48
2018-07-27T08:10:17.129Z,1002.47
2018-07-27T08:11:17.269Z,1002.49
2018-07-27T08:12:17.120Z,1002.44
2018-07-27T08:13:17.118Z,1002.45
2018-07-27T08:14:17.118Z,1002.41
2018-07-27T08:15:17.117Z,1002.41
2018-07-27T08:16:17.159Z,1002.37
2018-07-27T08:17:17.143Z,1002.37
2018-07-27T08:18:17.126Z,1002.37
2018-07-27T08:19:17.110Z,1002.37
2018-07-27T08:20:17.118Z,1002.34
2018-07-27T08:21:17.110Z,1002.32
2018-07-27T08:22:17.254Z,1002.28
2018-07-27T08:23:17.125Z,1002.32
2018-07-27T08:24:17.106Z,1002.28
2018-07-27T08:25:17.101Z,1002.28
2018-07-27T08:26:17.105Z,1002.29
2018-07-27T08:27:17.110Z,1002.30
2018-07-27T08:28:17.111Z,1002.26
2018-07-27T08:29:17.106Z,1002.29
2018-07-27T08:30:17.104Z,1002.27
2018-07-27T08:31:17.090Z,1002.29
2018-07-27T08:32:17.216Z,1002.26
2018-07-27T08:33:17.084Z,1002.22
2018-07-27T08:34:17.089Z,1002.27
2018-07-27T08:35:17.083Z,1002.22
2018-07-27T08:36:17.081Z,1002.17
2018-07-27T08:37:17.085Z,1002.21
2018-07-27T08:38:17.086Z,1002.21
2018-07-27T08:39:17.154Z,1002.22
2018-07-27T08:40:17.087Z,1002.22
2018-07-27T08:41:17.074Z,1002.22
2018-07-27T08:42:17.105Z,1002.24
2018-07-27T08:43:17.072Z,1002.21
2018-07-27T08:44:17.145Z,1002.24
2018-07-27T08:45:17.119Z,1002.23
2018-07-27T08:46:17.068Z,1002.24
2018-07-27T08:47:17.125Z,1002.22
2018-07-27T08:48:17.064Z,1002.18
2018-07-27T08:49:17.078Z,1002.20
2018-07-27T08:50:17.085Z,1002.14
2018-07-27T08:51:17.116Z,1002.17
2018-07-27T08:52:17.090Z,1002.21
2018-07-27T08:53:17.049Z,1002.26
2018-07-27T08:54:17.040Z,1002.22
2018-07-27T08:55:17.056Z,1002.20
2018-07-27T08:56:17.177Z,1002.23
2018-07-27T08:57:17.041Z,1002.17
2018-07-27T08:58:17.050Z,1002.13
2018-07-27T08:59:17.163Z,1002.14
2018-07-27T09:00:17.042Z,1002.12
2018-07-27T09:01:17.037Z,1002.18
2018-07-27T09:02:17.094Z,1002.18
2018-07-27T09:03:17.039Z,1002.20
2018-07-27T09:04:17.040Z,1002.24
2018-07-27T09:05:17.038Z,1002.26
2018-07-27T09:06:18.414Z,1002.23
2018-07-27T09:07:17.027Z,1002.23
2018-07-27T09:08:17.066Z,1002.25
2018-07-27T09:09:19.802Z,1002.17
2018-07-27T09:10:17.085Z,1002.20
2018-07-27T09:11:17.032Z,1002.23
2018-07-27T09:12:17.035Z,1002.20
2018-07-27T09:13:17.070Z,1002.22
2018-07-27T09:14:17.036Z,1002.24
2018-07-27T09:15:17.045Z,1002.27
2018-07-27T09:16:17.033Z,1002.24
2018-07-27T09:17:17.152Z,1002.21
2018-07-27T09:18:17.060Z,1002.23
2018-07-27T09:19:17.040Z,1002.24
2018-07-27T09:20:17.035Z,1002.24
2018-07-27T09:21:17.043Z,1002.24
2018-07-27T09:22:17.053Z,1002.21
2018-07-27T09:23:17.077Z,1002.20
2018-07-27T09:24:17.163Z,1002.17
2018-07-27T09:25:17.432Z,1002.23
2018-07-27T09:26:17.070Z,1002.13
2018-07-27T09:27:17.081Z,1002.15
2018-07-27T09:28:17.102Z,1002.14
2018-07-27T09:29:17.125Z,1002.11
2018-07-27T09:30:17.082Z,1002.15
2018-07-27T09:31:17.074Z,1002.19
2018-07-27T09:32:17.085Z,1002.11
2018-07-27T09:33:17.094Z,1002.16
2018-07-27T09:34:17.121Z,1002.19
2018-07-27T09:35:17.124Z,1002.14
2018-07-27T09:36:17.104Z,1002.15
2018-07-27T09:37:17.109Z,1002.15
2018-07-27T09:38:17.122Z,1002.18
2018-07-27T09:39:17.136Z,1002.19
2018-07-27T09:40:17.132Z,1002.15
2018-07-27T09:41:17.136Z,1002.16
2018-07-27T09:42:17.150Z,1002.13
2018-07-27T09:43:17.161Z,1002.17
2018-07-27T09:44:17.147Z,1002.20
2018-07-27T09:45:17.193Z,1002.12
2018-07-27T09:46:17.160Z,1002.17
2018-07-27T09:47:17.184Z,1002.21
2018-07-27T09:48:17.191Z,1002.18
2018-07-27T09:49:17.194Z,1002.19
2018-07-27T09:50:17.224Z,1002.15
2018-07-27T09:51:17.215Z,1002.18
2018-07-27T09:52:17.216Z,1002.17
2018-07-27T09:53:17.218Z,1002.11
2018-07-27T09:54:17.252Z,1002.19
2018-07-27T09:55:17.260Z,1002.18
2018-07-27T09:56:17.264Z,1002.14
2018-07-27T09:57:17.252Z,1002.12
2018-07-27T09:58:17.266Z,1002.16
2018-07-27T09:59:17.268Z,1002.12
2018-07-27T10:00:17.289Z,1002.09
2018-07-27T10:01:17.290Z,1002.09
2018-07-27T10:02:17.307Z,1002.09
2018-07-27T10:03:17.314Z,1002.09
2018-07-27T10:04:17.328Z,1002.08
2018-07-27T10:05:17.341Z,1002.03
2018-07-27T10:06:17.368Z,1002.08
2018-07-27T10:07:17.348Z,1002.06
2018-07-27T10:08:17.365Z,1002.09
2018-07-27T10:09:17.372Z,1002.09
2018-07-27T10:10:17.457Z,1002.07
2018-07-27T10:11:17.386Z,1002.12
2018-07-27T10:12:17.404Z,1002.07
2018-07-27T10:13:17.409Z,1002.13
2018-07-27T10:14:17.426Z,1002.09
2018-07-27T10:15:17.435Z,1002.14
2018-07-27T10:16:17.479Z,1002.12
2018-07-27T10:17:17.461Z,1002.12
2018-07-27T10:18:17.548Z,1002.10
2018-07-27T10:19:17.481Z,1002.09
2018-07-27T10:20:17.495Z,1002.07
2018-07-27T10:21:17.544Z,1002.05
2018-07-27T10:22:17.521Z,1002.03
2018-07-27T10:23:17.532Z,1002.00
2018-07-27T10:24:17.551Z,1001.99
2018-07-27T10:25:17.556Z,1002.02
2018-07-27T10:26:17.636Z,1002.03
2018-07-27T10:27:17.579Z,1002.05
2018-07-27T10:28:17.588Z,1002.02
2018-07-27T10:29:17.603Z,1002.09
2018-07-27T10:30:17.632Z,1002.03
2018-07-27T10:31:17.632Z,1002.00
2018-07-27T10:32:17.654Z,1002.00
2018-07-27T10:33:17.657Z,1002.04
2018-07-27T10:34:17.661Z,1002.03
2018-07-27T10:35:17.694Z,1002.01
2018-07-27T10:36:17.699Z,1002.06
2018-07-27T10:37:17.713Z,1002.06
2018-07-27T10:38:17.723Z,1002.01
2018-07-27T10:39:17.739Z,1002.12
2018-07-27T10:40:17.752Z,1002.22
2018-07-27T10:41:17.761Z,1002.70
2018-07-27T10:42:17.794Z,1002.60
2018-07-27T10:43:17.792Z,1001.67
2018-07-27T10:44:17.819Z,1001.53
2018-07-27T10:45:18.757Z,1001.99
2018-07-27T10:46:17.844Z,1001.57
2018-07-27T10:47:17.891Z,1001.64
2018-07-27T10:48:17.854Z,1001.50
2018-07-27T10:49:17.868Z,1001.44
2018-07-27T10:50:17.922Z,1001.45
2018-07-27T10:51:17.917Z,1001.47
2018-07-27T10:52:17.934Z,1001.48
2018-07-27T10:53:17.916Z,1001.57
2018-07-27T10:54:17.936Z,1001.64
2018-07-27T10:55:17.935Z,1001.50
2018-07-27T10:56:17.979Z,1001.43
2018-07-27T10:57:17.953Z,1001.70
2018-07-27T10:58:17.957Z,1001.55
2018-07-27T10:59:17.973Z,1001.84
2018-07-27T11:00:17.964Z,1001.81
2018-07-27T11:01:17.993Z,1001.64
2018-07-27T11:02:17.998Z,1001.50
2018-07-27T11:03:17.995Z,1001.51
2018-07-27T11:04:18.019Z,1001.37
2018-07-27T11:05:18.017Z,1001.34
2018-07-27T11:06:18.075Z,1001.49
2018-07-27T11:07:18.028Z,1001.32
2018-07-27T11:08:18.038Z,1001.26
2018-07-27T11:09:18.127Z,1001.37
2018-07-27T11:10:18.058Z,1001.23
2018-07-27T11:11:18.102Z,1001.31
2018-07-27T11:12:18.089Z,1001.23
2018-07-27T11:13:18.614Z,1001.25
2018-07-27T11:14:18.095Z,1001.21
2018-07-27T11:15:18.154Z,1001.16
2018-07-27T11:16:18.108Z,1001.18
2018-07-27T11:17:18.419Z,1001.15
2018-07-27T11:18:18.112Z,1001.14
2018-07-27T11:19:18.117Z,1001.18
2018-07-27T11:20:18.132Z,1001.25
2018-07-27T11:21:18.137Z,1001.36
2018-07-27T11:22:18.129Z,1001.94
2018-07-27T11:23:18.160Z,1002.11
2018-07-27T11:24:18.153Z,1002.17
2018-07-27T11:25:18.145Z,1002.00
2018-07-27T11:26:18.163Z,1001.99
2018-07-27T11:27:18.214Z,1001.83
2018-07-27T11:28:18.786Z,1001.55
2018-07-27T11:29:18.179Z,1001.45
2018-07-27T11:30:19.494Z,1001.98
2018-07-27T11:31:18.802Z,1001.21
2018-07-27T11:32:18.195Z,1001.61
2018-07-27T11:33:18.198Z,1001.86
2018-07-27T11:34:18.211Z,1002.01
2018-07-27T11:35:18.209Z,1002.02
2018-07-27T11:36:18.224Z,1001.95
2018-07-27T11:37:18.276Z,1001.95
2018-07-27T11:38:18.224Z,1001.94
2018-07-27T11:39:18.297Z,1001.96
2018-07-27T11:40:18.240Z,1001.95
2018-07-27T11:41:18.265Z,1001.95
2018-07-27T11:42:22.835Z,1001.90
2018-07-27T11:43:18.256Z,1001.89
2018-07-27T11:44:18.319Z,1001.90
2018-07-27T11:45:18.341Z,1001.90
2018-07-27T11:46:18.302Z,1001.92
2018-07-27T11:47:18.303Z,1001.91
2018-07-27T11:48:18.319Z,1001.86
2018-07-27T11:49:18.378Z,1001.90
2018-07-27T11:50:18.344Z,1001.86
2018-07-27T11:51:18.356Z,1001.88
2018-07-27T11:52:18.406Z,1001.87
2018-07-27T11:53:18.368Z,1001.90
2018-07-27T11:54:18.392Z,1001.91
2018-07-27T11:55:18.984Z,1001.97
2018-07-27T11:56:18.396Z,1001.93
2018-07-27T11:57:18.401Z,1001.88
2018-07-27T11:58:19.318Z,1001.94
2018-07-27T11:59:18.504Z,1001.97
2018-07-27T12:00:18.522Z,1001.92
2018-07-27T12:01:18.817Z,1001.92
2018-07-27T12:02:18.461Z,1001.95
2018-07-27T12:03:18.491Z,1002.01
2018-07-27T12:04:18.650Z,1002.00
2018-07-27T12:05:21.344Z,1002.09